createdAt,value
2016-04-18T00:00:36.865Z,1010.81
2016-04-18T00:01:36.851Z,1010.82
2016-04-18T00:02:36.823Z,1010.83
2016-04-18T00:03:36.779Z,1010.83
2016-04-18T00:04:36.765Z,1010.84
2016-04-18T00:05:36.738Z,1010.85
2016-04-18T00:06:36.709Z,1010.86
2016-04-18T00:07:36.665Z,1010.87
2016-04-18T00:08:36.637Z,1010.84
2016-04-18T00:09:36.607Z,1010.89
2016-04-18T00:10:36.579Z,1010.86
2016-04-18T00:11:36.550Z,1010.88
2016-04-18T00:12:36.522Z,1010.85
2016-04-18T00:13:36.508Z,1010.83
2016-04-18T00:14:36.464Z,1010.81
2016-04-18T00:15:36.457Z,1010.83
2016-04-18T00:16:36.471Z,1010.82
2016-04-18T00:17:36.485Z,1010.81
2016-04-18T00:18:36.500Z,1010.81
2016-04-18T00:19:36.515Z,1010.82
2016-04-18T00:20:36.516Z,1010.81
2016-04-18T00:21:36.502Z,1010.85
2016-04-18T00:22:36.505Z,1010.86
2016-04-18T00:23:36.476Z,1010.87
2016-04-18T00:24:36.464Z,1010.92
2016-04-18T00:25:36.445Z,1010.94
2016-04-18T00:26:36.422Z,1010.96
2016-04-18T00:27:36.400Z,1010.95
2016-04-18T00:28:36.377Z,1010.96
2016-04-18T00:29:36.354Z,1010.93
2016-04-18T00:30:36.329Z,1010.95
2016-04-18T00:31:36.303Z,1010.96
2016-04-18T00:32:36.276Z,1010.98
2016-04-18T00:33:36.249Z,1011
2016-04-18T00:34:36.222Z,1010.97
2016-04-18T00:35:36.195Z,1010.95
2016-04-18T00:36:36.168Z,1011
2016-04-18T00:37:36.139Z,1010.95
2016-04-18T00:38:36.112Z,1010.97
2016-04-18T00:39:36.084Z,1010.92
2016-04-18T00:40:36.056Z,1010.96
2016-04-18T00:41:36.027Z,1010.97
2016-04-18T00:42:36.000Z,1010.93
2016-04-18T00:43:35.972Z,1010.94
2016-04-18T00:44:35.944Z,1010.94
2016-04-18T00:45:35.915Z,1010.98
2016-04-18T00:46:35.886Z,1011
2016-04-18T00:47:35.858Z,1011.02
2016-04-18T00:48:35.829Z,1011.02
2016-04-18T00:49:35.801Z,1011.03
2016-04-18T00:50:35.773Z,1011.05
2016-04-18T00:51:35.744Z,1011.03
2016-04-18T00:52:35.716Z,1011.06
2016-04-18T00:53:35.686Z,1011.08
2016-04-18T00:54:35.658Z,1011.07
2016-04-18T00:55:35.630Z,1011.06
2016-04-18T00:56:35.602Z,1011.07
2016-04-18T00:57:35.572Z,1011.08
2016-04-18T00:58:35.544Z,1011.06
2016-04-18T00:59:35.516Z,1011.09
2016-04-18T01:00:35.488Z,1011.06
2016-04-18T01:01:35.458Z,1011.06
2016-04-18T01:02:35.415Z,1011.05
2016-04-18T01:03:35.401Z,1011.05
2016-04-18T01:04:35.373Z,1011.08
2016-04-18T01:05:35.344Z,1011.06
2016-04-18T01:06:35.301Z,1011.07
2016-04-18T01:07:35.287Z,1011.06
2016-04-18T01:08:35.259Z,1011.08
2016-04-18T01:09:35.214Z,1011.04
2016-04-18T01:10:35.201Z,1011.05
2016-04-18T01:11:35.173Z,1011.01
2016-04-18T01:12:35.129Z,1011.06
2016-04-18T01:13:35.100Z,1011.02
2016-04-18T01:14:35.072Z,1011.07
2016-04-18T01:15:35.042Z,1011.09
2016-04-18T01:16:35.014Z,1011.12
2016-04-18T01:17:34.986Z,1011.09
2016-04-18T01:18:34.957Z,1011.07
2016-04-18T01:19:34.945Z,1011.06
2016-04-18T01:20:34.900Z,1011.06
2016-04-18T01:21:34.886Z,1011.09
2016-04-18T01:22:34.844Z,1011.09
2016-04-18T01:23:34.814Z,1011.08
2016-04-18T01:24:34.785Z,1011.07
2016-04-18T01:25:34.758Z,1011.09
2016-04-18T01:26:34.730Z,1011.09
2016-04-18T01:27:34.699Z,1011.07
2016-04-18T01:28:34.672Z,1011.08
2016-04-18T01:29:34.643Z,1011.1
2016-04-18T01:30:34.615Z,1011.1
2016-04-18T01:31:34.586Z,1011.16
2016-04-18T01:32:34.557Z,1011.12
2016-04-18T01:33:34.529Z,1011.13
2016-04-18T01:34:34.485Z,1011.14
2016-04-18T01:35:34.457Z,1011.14
2016-04-18T01:36:34.443Z,1011.15
2016-04-18T01:37:34.399Z,1011.16
2016-04-18T01:38:34.370Z,1011.17
2016-04-18T01:39:34.342Z,1011.19
2016-04-18T01:40:34.312Z,1011.22
2016-04-18T01:41:34.285Z,1011.25
2016-04-18T01:42:34.256Z,1011.24
2016-04-18T01:43:34.228Z,1011.25
2016-04-18T01:44:34.215Z,1011.26
2016-04-18T01:45:34.171Z,1011.28
2016-04-18T01:46:34.142Z,1011.21
2016-04-18T01:47:34.114Z,1011.26
2016-04-18T01:48:34.084Z,1011.23
2016-04-18T01:49:34.056Z,1011.24
2016-04-18T01:50:34.027Z,1011.22
2016-04-18T01:51:33.999Z,1011.23
2016-04-18T01:52:33.970Z,1011.25
2016-04-18T01:53:33.942Z,1011.28
2016-04-18T01:54:33.913Z,1011.26
2016-04-18T01:55:33.885Z,1011.29
2016-04-18T01:56:33.841Z,1011.28
2016-04-18T01:57:33.813Z,1011.3
2016-04-18T01:58:33.783Z,1011.29
2016-04-18T01:59:33.755Z,1011.32
2016-04-18T02:00:33.726Z,1011.32
2016-04-18T02:01:33.698Z,1011.31
2016-04-18T02:02:33.669Z,1011.3
2016-04-18T02:03:33.640Z,1011.35
2016-04-18T02:04:33.613Z,1011.36
2016-04-18T02:05:33.584Z,1011.35
2016-04-18T02:06:33.554Z,1011.36
2016-04-18T02:07:33.526Z,1011.41
2016-04-18T02:08:33.499Z,1011.43
2016-04-18T02:09:33.470Z,1011.42
2016-04-18T02:10:33.425Z,1011.43
2016-04-18T02:11:33.412Z,1011.48
2016-04-18T02:12:33.368Z,1011.45
2016-04-18T02:13:33.356Z,1011.49
2016-04-18T02:14:33.311Z,1011.43
2016-04-18T02:15:33.282Z,1011.45
2016-04-18T02:16:33.254Z,1011.46
2016-04-18T02:17:33.225Z,1011.46
2016-04-18T02:18:33.197Z,1011.44
2016-04-18T02:19:33.168Z,1011.43
2016-04-18T02:20:33.140Z,1011.4
2016-04-18T02:21:33.111Z,1011.38
2016-04-18T02:22:33.083Z,1011.45
2016-04-18T02:23:33.053Z,1011.48
2016-04-18T02:24:33.010Z,1011.46
2016-04-18T02:25:32.996Z,1011.46
2016-04-18T02:26:32.969Z,1011.47
2016-04-18T02:27:32.924Z,1011.48
2016-04-18T02:28:32.896Z,1011.49
2016-04-18T02:29:32.883Z,1011.48
2016-04-18T02:30:32.838Z,1011.48
2016-04-18T02:31:32.810Z,1011.46
2016-04-18T02:32:32.782Z,1011.49
2016-04-18T02:33:32.752Z,1011.41
2016-04-18T02:34:32.724Z,1011.52
2016-04-18T02:35:32.696Z,1011.48
2016-04-18T02:36:32.667Z,1011.47
2016-04-18T02:37:32.623Z,1011.48
2016-04-18T02:38:32.609Z,1011.48
2016-04-18T02:39:32.582Z,1011.46
2016-04-18T02:40:32.538Z,1011.48
2016-04-18T02:41:32.509Z,1011.52
2016-04-18T02:42:32.480Z,1011.5
2016-04-18T02:43:32.451Z,1011.49
2016-04-18T02:44:32.422Z,1011.5
2016-04-18T02:45:32.394Z,1011.5
2016-04-18T02:46:32.365Z,1011.5
2016-04-18T02:47:32.337Z,1011.5
2016-04-18T02:48:32.308Z,1011.49
2016-04-18T02:49:32.280Z,1011.54
2016-04-18T02:50:32.236Z,1011.52
2016-04-18T02:51:32.208Z,1011.54
2016-04-18T02:52:32.178Z,1011.55
2016-04-18T02:53:32.166Z,1011.57
2016-04-18T02:54:32.122Z,1011.55
2016-04-18T02:55:32.094Z,1011.56
2016-04-18T02:56:32.064Z,1011.54
2016-04-18T02:57:32.052Z,1011.53
2016-04-18T02:58:32.007Z,1011.53
2016-04-18T02:59:31.980Z,1011.48
2016-04-18T03:00:31.949Z,1011.5
2016-04-18T03:01:31.922Z,1011.47
2016-04-18T03:02:31.893Z,1011.47
2016-04-18T03:03:31.849Z,1011.5
2016-04-18T03:04:31.820Z,1011.48
2016-04-18T03:05:31.791Z,1011.45
2016-04-18T03:06:31.763Z,1011.47
2016-04-18T03:07:31.735Z,1011.51
2016-04-18T03:08:31.707Z,1011.52
2016-04-18T03:09:31.678Z,1011.54
2016-04-18T03:10:31.649Z,1011.56
2016-04-18T03:11:31.621Z,1011.54
2016-04-18T03:12:31.576Z,1011.54
2016-04-18T03:13:31.563Z,1011.57
2016-04-18T03:14:31.520Z,1011.56
2016-04-18T03:15:31.491Z,1011.55
2016-04-18T03:16:31.462Z,1011.57
2016-04-18T03:17:31.434Z,1011.56
2016-04-18T03:18:31.406Z,1011.55
2016-04-18T03:19:31.376Z,1011.56
2016-04-18T03:20:31.332Z,1011.56
2016-04-18T03:21:31.319Z,1011.59
2016-04-18T03:22:31.291Z,1011.55
2016-04-18T03:23:31.247Z,1011.58
2016-04-18T03:24:31.328Z,1011.57
2016-04-18T03:25:31.189Z,1011.63
2016-04-18T03:26:31.161Z,1011.58
2016-04-18T03:27:31.147Z,1011.59
2016-04-18T03:28:31.103Z,1011.6
2016-04-18T03:29:31.074Z,1011.53
2016-04-18T03:30:31.046Z,1011.58
2016-04-18T03:31:31.002Z,1011.6
2016-04-18T03:32:30.974Z,1011.57
2016-04-18T03:33:30.961Z,1011.55
2016-04-18T03:34:30.916Z,1011.55
2016-04-18T03:35:30.888Z,1011.54
2016-04-18T03:36:30.859Z,1011.56
2016-04-18T03:37:30.831Z,1011.5
2016-04-18T03:38:30.802Z,1011.53
2016-04-18T03:39:30.899Z,1011.57
2016-04-18T03:40:30.746Z,1011.57
2016-04-18T03:41:30.701Z,1011.54
2016-04-18T03:42:30.688Z,1011.61
2016-04-18T03:43:30.644Z,1011.57
2016-04-18T03:44:30.631Z,1011.59
2016-04-18T03:45:30.587Z,1011.58
2016-04-18T03:46:30.558Z,1011.56
2016-04-18T03:47:30.530Z,1011.59
2016-04-18T03:48:30.501Z,1011.59
2016-04-18T03:49:30.489Z,1011.62
2016-04-18T03:50:30.428Z,1011.55
2016-04-18T03:51:30.400Z,1011.58
2016-04-18T03:52:30.372Z,1011.6
2016-04-18T03:53:30.342Z,1011.57
2016-04-18T03:54:30.314Z,1011.56
2016-04-18T03:55:30.285Z,1011.56
2016-04-18T03:56:30.257Z,1011.57
2016-04-18T03:57:30.228Z,1011.56
2016-04-18T03:58:30.200Z,1011.54
2016-04-18T03:59:30.156Z,1011.55
2016-04-18T04:00:30.127Z,1011.58
2016-04-18T04:01:30.099Z,1011.58
2016-04-18T04:02:30.070Z,1011.61
2016-04-18T04:03:30.042Z,1011.63
2016-04-18T04:04:30.013Z,1011.59
2016-04-18T04:05:29.985Z,1011.61
2016-04-18T04:06:29.940Z,1011.6
2016-04-18T04:07:29.912Z,1011.61
2016-04-18T04:08:29.883Z,1011.58
2016-04-18T04:09:29.870Z,1011.58
2016-04-18T04:10:29.826Z,1011.57
2016-04-18T04:11:29.798Z,1011.59
2016-04-18T04:12:29.769Z,1011.61
2016-04-18T04:13:29.740Z,1011.63
2016-04-18T04:14:29.696Z,1011.67
2016-04-18T04:15:29.668Z,1011.71
2016-04-18T04:16:29.639Z,1011.69
2016-04-18T04:17:29.610Z,1011.65
2016-04-18T04:18:29.582Z,1011.68
2016-04-18T04:19:29.553Z,1011.64
2016-04-18T04:20:29.525Z,1011.63
2016-04-18T04:21:29.495Z,1011.65
2016-04-18T04:22:29.468Z,1011.63
2016-04-18T04:23:29.423Z,1011.6
2016-04-18T04:24:29.426Z,1011.63
2016-04-18T04:25:29.367Z,1011.67
2016-04-18T04:26:29.338Z,1011.68
2016-04-18T04:27:29.309Z,1011.7
2016-04-18T04:28:29.280Z,1011.71
2016-04-18T04:29:29.253Z,1011.7
2016-04-18T04:30:29.224Z,1011.72
2016-04-18T04:31:29.180Z,1011.71
2016-04-18T04:32:29.150Z,1011.71
2016-04-18T04:33:29.122Z,1011.73
2016-04-18T04:34:29.094Z,1011.74
2016-04-18T04:35:29.065Z,1011.73
2016-04-18T04:36:29.036Z,1011.74
2016-04-18T04:37:29.007Z,1011.75
2016-04-18T04:38:28.979Z,1011.76
2016-04-18T04:39:28.951Z,1011.76
2016-04-18T04:40:28.907Z,1011.79
2016-04-18T04:41:28.879Z,1011.78
2016-04-18T04:42:28.849Z,1011.79
2016-04-18T04:43:28.821Z,1011.79
2016-04-18T04:44:28.792Z,1011.77
2016-04-18T04:45:28.748Z,1011.76
2016-04-18T04:46:28.719Z,1011.78
2016-04-18T04:47:28.689Z,1011.73
2016-04-18T04:48:28.661Z,1011.77
2016-04-18T04:49:28.633Z,1011.82
2016-04-18T04:50:28.605Z,1011.77
2016-04-18T04:51:28.576Z,1011.77
2016-04-18T04:52:28.532Z,1011.8
2016-04-18T04:53:28.503Z,1011.83
2016-04-18T04:54:28.506Z,1011.83
2016-04-18T04:55:28.446Z,1011.82
2016-04-18T04:56:28.418Z,1011.83
2016-04-18T04:57:28.389Z,1011.85
2016-04-18T04:58:28.360Z,1011.85
2016-04-18T04:59:28.332Z,1011.87
2016-04-18T05:00:28.304Z,1011.88
2016-04-18T05:01:28.259Z,1011.84
2016-04-18T05:02:28.230Z,1011.87
2016-04-18T05:03:28.201Z,1011.9
2016-04-18T05:04:28.173Z,1011.89
2016-04-18T05:05:28.145Z,1011.92
2016-04-18T05:06:28.116Z,1011.98
2016-04-18T05:07:28.088Z,1011.97
2016-04-18T05:08:28.059Z,1012
2016-04-18T05:09:28.046Z,1012.02
2016-04-18T05:10:27.986Z,1012.02
2016-04-18T05:11:27.958Z,1012.03
2016-04-18T05:12:27.945Z,1012.04
2016-04-18T05:13:27.900Z,1012.02
2016-04-18T05:14:27.872Z,1012.07
2016-04-18T05:15:27.844Z,1012.02
2016-04-18T05:16:27.815Z,1012.01
2016-04-18T05:17:27.786Z,1011.98
2016-04-18T05:18:27.742Z,1012.02
2016-04-18T05:19:27.713Z,1011.98
2016-04-18T05:20:27.685Z,1012.03
2016-04-18T05:21:27.656Z,1012.04
2016-04-18T05:22:27.628Z,1012.07
2016-04-18T05:23:27.599Z,1012.03
2016-04-18T05:24:27.571Z,1012.07
2016-04-18T05:25:27.652Z,1012.09
2016-04-18T05:26:27.498Z,1012.07
2016-04-18T05:27:27.469Z,1012.1
2016-04-18T05:28:27.440Z,1012.11
2016-04-18T05:29:27.427Z,1012.13
2016-04-18T05:30:27.389Z,1012.15
2016-04-18T05:31:27.346Z,1012.09
2016-04-18T05:32:27.317Z,1012.11
2016-04-18T05:33:27.288Z,1012.15
2016-04-18T05:34:27.260Z,1012.11
2016-04-18T05:35:27.231Z,1012.1
2016-04-18T05:36:27.202Z,1012.12
2016-04-18T05:37:27.174Z,1012.09
2016-04-18T05:38:27.146Z,1012.12
2016-04-18T05:39:27.102Z,1012.11
2016-04-18T05:40:27.073Z,1012.12
2016-04-18T05:41:27.044Z,1012.09
2016-04-18T05:42:27.031Z,1012.1
2016-04-18T05:43:26.987Z,1012.1
2016-04-18T05:44:26.958Z,1012.11
2016-04-18T05:45:26.929Z,1012.1
2016-04-18T05:46:26.901Z,1012.19
2016-04-18T05:47:26.856Z,1012.16
2016-04-18T05:48:26.845Z,1012.19
2016-04-18T05:49:26.800Z,1012.21
2016-04-18T05:50:26.772Z,1012.21
2016-04-18T05:51:26.758Z,1012.21
2016-04-18T05:52:26.714Z,1012.22
2016-04-18T05:53:26.686Z,1012.25
2016-04-18T05:54:26.658Z,1012.27
2016-04-18T05:55:26.629Z,1012.26
2016-04-18T05:56:26.617Z,1012.3
2016-04-18T05:57:26.572Z,1012.31
2016-04-18T05:58:26.544Z,1012.31
2016-04-18T05:59:26.514Z,1012.32
2016-04-18T06:00:26.470Z,1012.31
2016-04-18T06:01:26.441Z,1012.3
2016-04-18T06:02:26.413Z,1012.3
2016-04-18T06:03:26.385Z,1012.35
2016-04-18T06:04:26.356Z,1012.31
2016-04-18T06:05:26.328Z,1012.29
2016-04-18T06:06:26.299Z,1012.38
2016-04-18T06:07:26.271Z,1012.36
2016-04-18T06:08:26.241Z,1012.38
2016-04-18T06:09:26.213Z,1012.39
2016-04-18T06:10:26.184Z,1012.43
2016-04-18T06:11:26.156Z,1012.43
2016-04-18T06:12:26.127Z,1012.41
2016-04-18T06:13:26.099Z,1012.43
2016-04-18T06:14:26.071Z,1012.42
2016-04-18T06:15:26.042Z,1012.43
2016-04-18T06:16:26.013Z,1012.38
2016-04-18T06:17:25.984Z,1012.44
2016-04-18T06:18:25.957Z,1012.41
2016-04-18T06:19:25.928Z,1012.45
2016-04-18T06:20:25.899Z,1012.45
2016-04-18T06:21:25.870Z,1012.46
2016-04-18T06:22:25.842Z,1012.49
2016-04-18T06:23:25.813Z,1012.49
2016-04-18T06:24:25.769Z,1012.52
2016-04-18T06:25:25.756Z,1012.55
2016-04-18T06:26:25.728Z,1012.51
2016-04-18T06:27:25.700Z,1012.47
2016-04-18T06:28:25.670Z,1012.51
2016-04-18T06:29:25.642Z,1012.48
2016-04-18T06:30:25.614Z,1012.54
2016-04-18T06:31:25.585Z,1012.5
2016-04-18T06:32:25.556Z,1012.51
2016-04-18T06:33:25.512Z,1012.53
2016-04-18T06:34:25.500Z,1012.53
2016-04-18T06:35:25.471Z,1012.55
2016-04-18T06:36:25.427Z,1012.58
2016-04-18T06:37:25.414Z,1012.59
2016-04-18T06:38:25.385Z,1012.62
2016-04-18T06:39:25.356Z,1012.59
2016-04-18T06:40:25.328Z,1012.59
2016-04-18T06:41:25.299Z,1012.6
2016-04-18T06:42:25.271Z,1012.6
2016-04-18T06:43:25.243Z,1012.63
2016-04-18T06:44:25.213Z,1012.65
2016-04-18T06:45:25.185Z,1012.64
2016-04-18T06:46:25.156Z,1012.63
2016-04-18T06:47:25.128Z,1012.62
2016-04-18T06:48:25.099Z,1012.62
2016-04-18T06:49:25.071Z,1012.68
2016-04-18T06:50:25.043Z,1012.68
2016-04-18T06:51:25.014Z,1012.65
2016-04-18T06:52:24.985Z,1012.64
2016-04-18T06:53:24.956Z,1012.64
2016-04-18T06:54:24.928Z,1012.62
2016-04-18T06:55:24.900Z,1012.61
2016-04-18T06:56:24.871Z,1012.65
2016-04-18T06:57:24.842Z,1012.63
2016-04-18T06:58:24.830Z,1012.65
2016-04-18T06:59:24.785Z,1012.65
2016-04-18T07:00:24.772Z,1012.67
2016-04-18T07:01:24.758Z,1012.67
2016-04-18T07:02:24.715Z,1012.66
2016-04-18T07:03:24.686Z,1012.68
2016-04-18T07:04:24.657Z,1012.69
2016-04-18T07:05:24.629Z,1012.67
2016-04-18T07:06:24.601Z,1012.67
2016-04-18T07:07:24.588Z,1012.69
2016-04-18T07:08:24.544Z,1012.64
2016-04-18T07:09:24.531Z,1012.67
2016-04-18T07:10:24.502Z,1012.68
2016-04-18T07:11:24.458Z,1012.71
2016-04-18T07:12:24.445Z,1012.7
2016-04-18T07:13:24.416Z,1012.7
2016-04-18T07:14:24.387Z,1012.69
2016-04-18T07:15:24.360Z,1012.75
2016-04-18T07:16:24.331Z,1012.7
2016-04-18T07:17:24.302Z,1012.77
2016-04-18T07:18:24.273Z,1012.76
2016-04-18T07:19:24.245Z,1012.74
2016-04-18T07:20:24.216Z,1012.76
2016-04-18T07:21:24.195Z,1012.73
2016-04-18T07:22:24.166Z,1012.75
2016-04-18T07:23:24.653Z,1012.71
2016-04-18T07:24:24.563Z,1012.73
2016-04-18T07:25:24.691Z,1012.74
2016-04-18T07:26:24.239Z,1012.72
2016-04-18T07:27:25.399Z,1012.66
2016-04-18T07:28:25.089Z,1012.71
2016-04-18T07:29:25.263Z,1012.73
2016-04-18T07:30:24.875Z,1012.72
2016-04-18T07:31:24.738Z,1012.75
2016-04-18T07:32:25.146Z,1012.79
2016-04-18T07:33:24.977Z,1012.78
2016-04-18T07:34:25.308Z,1012.82
2016-04-18T07:35:24.670Z,1012.79
2016-04-18T07:36:25.032Z,1012.77
2016-04-18T07:37:25.175Z,1012.83
2016-04-18T07:38:25.178Z,1012.8
2016-04-18T07:39:24.540Z,1012.78
2016-04-18T07:40:25.120Z,1012.81
2016-04-18T07:41:23.670Z,1012.82
2016-04-18T07:42:23.642Z,1012.82
2016-04-18T07:43:23.613Z,1012.78
2016-04-18T07:44:23.584Z,1012.9
2016-04-18T07:45:23.556Z,1012.91
2016-04-18T07:46:23.542Z,1012.89
2016-04-18T07:47:23.514Z,1012.92
2016-04-18T07:48:23.486Z,1012.94
2016-04-18T07:49:23.458Z,1012.96
2016-04-18T07:50:23.445Z,1012.93
2016-04-18T07:51:23.417Z,1012.98
2016-04-18T07:52:23.388Z,1012.97
2016-04-18T07:53:23.375Z,1012.98
2016-04-18T07:54:23.361Z,1012.98
2016-04-18T07:55:23.333Z,1013
2016-04-18T07:56:23.304Z,1013.03
2016-04-18T07:57:23.291Z,1013.02
2016-04-18T07:58:23.263Z,1012.99
2016-04-18T07:59:23.250Z,1013
2016-04-18T08:00:23.237Z,1013.02
2016-04-18T08:01:23.208Z,1013.04
2016-04-18T08:02:23.195Z,1013.03
2016-04-18T08:03:23.183Z,1013.08
2016-04-18T08:04:23.154Z,1013.05
2016-04-18T08:05:23.141Z,1013.1
2016-04-18T08:06:23.128Z,1013.09
2016-04-18T08:07:23.115Z,1013.04
2016-04-18T08:08:23.087Z,1013.04
2016-04-18T08:09:23.074Z,1013.05
2016-04-18T08:10:23.061Z,1013.02
2016-04-18T08:11:23.048Z,1013.06
2016-04-18T08:12:23.034Z,1013.09
2016-04-18T08:13:23.022Z,1013.07
2016-04-18T08:14:23.009Z,1013.02
2016-04-18T08:15:22.995Z,1013.04
2016-04-18T08:16:22.967Z,1013.03
2016-04-18T08:17:22.970Z,1013.05
2016-04-18T08:18:22.942Z,1013.02
2016-04-18T08:19:22.928Z,1013.03
2016-04-18T08:20:22.932Z,1013.04
2016-04-18T08:21:22.903Z,1013.01
2016-04-18T08:22:22.890Z,1012.99
2016-04-18T08:23:22.878Z,1013.03
2016-04-18T08:24:22.865Z,1013
2016-04-18T08:25:22.852Z,1012.99
2016-04-18T08:26:22.838Z,1013
2016-04-18T08:27:22.825Z,1012.98
2016-04-18T08:28:22.812Z,1012.98
2016-04-18T08:29:22.799Z,1012.98
2016-04-18T08:30:22.786Z,1012.97
2016-04-18T08:31:22.774Z,1013.03
2016-04-18T08:32:22.761Z,1013.03
2016-04-18T08:33:22.749Z,1013
2016-04-18T08:34:22.735Z,1013
2016-04-18T08:35:22.721Z,1013.02
2016-04-18T08:36:22.710Z,1012.98
2016-04-18T08:37:22.712Z,1012.96
2016-04-18T08:38:22.683Z,1013.01
2016-04-18T08:39:22.671Z,1013.02
2016-04-18T08:40:22.657Z,1012.99
2016-04-18T08:41:22.645Z,1013.03
2016-04-18T08:42:22.615Z,1013.05
2016-04-18T08:43:22.603Z,1012.94
2016-04-18T08:44:22.590Z,1012.99
2016-04-18T08:45:22.577Z,1012.95
2016-04-18T08:46:22.548Z,1012.99
2016-04-18T08:47:22.536Z,1012.95
2016-04-18T08:48:22.522Z,1013.07
2016-04-18T08:49:22.509Z,1013.03
2016-04-18T08:50:22.481Z,1013.02
2016-04-18T08:51:22.468Z,1012.97
2016-04-18T08:52:22.440Z,1013.04
2016-04-18T08:53:22.427Z,1013.01
2016-04-18T08:54:22.414Z,1013.01
2016-04-18T08:55:22.464Z,1012.98
2016-04-18T08:56:22.356Z,1013.05
2016-04-18T08:57:22.343Z,1013.04
2016-04-18T08:58:22.330Z,1013.03
2016-04-18T08:59:22.302Z,1012.98
2016-04-18T09:00:22.288Z,1013.08
2016-04-18T09:01:22.261Z,1013.01
2016-04-18T09:02:22.232Z,1013.04
2016-04-18T09:03:22.204Z,1013.05
2016-04-18T09:04:22.190Z,1013.03
2016-04-18T09:05:22.163Z,1012.99
2016-04-18T09:06:22.149Z,1013.01
2016-04-18T09:07:22.121Z,1012.95
2016-04-18T09:08:22.108Z,1013.03
2016-04-18T09:09:22.080Z,1012.99
2016-04-18T09:10:22.128Z,1012.95
2016-04-18T09:11:22.037Z,1012.99
2016-04-18T09:12:22.010Z,1012.97
2016-04-18T09:13:21.980Z,1012.94
2016-04-18T09:14:21.968Z,1012.98
2016-04-18T09:15:21.939Z,1012.95
2016-04-18T09:16:21.910Z,1012.94
2016-04-18T09:17:21.897Z,1012.94
2016-04-18T09:18:21.869Z,1012.98
2016-04-18T09:19:21.840Z,1012.95
2016-04-18T09:20:21.828Z,1012.97
2016-04-18T09:21:21.823Z,1012.98
2016-04-18T09:22:21.853Z,1012.96
2016-04-18T09:23:21.867Z,1012.96
2016-04-18T09:24:21.880Z,1013.04
2016-04-18T09:25:21.908Z,1013.02
2016-04-18T09:26:21.905Z,1013.02
2016-04-18T09:27:21.892Z,1013
2016-04-18T09:28:21.880Z,1012.96
2016-04-18T09:29:21.881Z,1012.95
2016-04-18T09:30:21.869Z,1012.98
2016-04-18T09:31:21.850Z,1012.95
2016-04-18T09:32:21.842Z,1012.94
2016-04-18T09:33:21.818Z,1012.89
2016-04-18T09:34:21.795Z,1012.86
2016-04-18T09:35:21.788Z,1012.87
2016-04-18T09:36:21.763Z,1012.87
2016-04-18T09:37:21.736Z,1012.87
2016-04-18T09:38:21.726Z,1012.83
2016-04-18T09:39:21.698Z,1012.89
2016-04-18T09:40:21.671Z,1012.82
2016-04-18T09:41:21.660Z,1012.86
2016-04-18T09:42:21.633Z,1012.8
2016-04-18T09:43:21.604Z,1012.83
2016-04-18T09:44:21.576Z,1012.79
2016-04-18T09:45:21.564Z,1012.84
2016-04-18T09:46:21.536Z,1012.91
2016-04-18T09:47:21.524Z,1012.86
2016-04-18T09:48:21.495Z,1012.85
2016-04-18T09:49:21.466Z,1012.81
2016-04-18T09:50:21.437Z,1012.83
2016-04-18T09:51:21.424Z,1012.77
2016-04-18T09:52:21.396Z,1012.84
2016-04-18T09:53:21.382Z,1012.84
2016-04-18T09:54:21.354Z,1012.85
2016-04-18T09:55:21.326Z,1012.87
2016-04-18T09:56:21.298Z,1012.82
2016-04-18T09:57:21.285Z,1012.8
2016-04-18T09:58:21.256Z,1012.79
2016-04-18T10:01:50.373Z,1012.82
2016-04-18T10:02:50.360Z,1012.73
2016-04-18T10:03:50.331Z,1012.75
2016-04-18T10:04:50.303Z,1012.73
2016-04-18T10:08:16.330Z,1012.74
2016-04-18T10:09:16.333Z,1012.74
2016-04-18T10:10:16.273Z,1012.72
2016-04-18T10:11:16.259Z,1012.75
2016-04-18T10:12:16.247Z,1012.72
2016-04-18T10:13:16.206Z,1012.68
2016-04-18T10:14:16.192Z,1012.71
2016-04-18T10:15:16.164Z,1012.72
2016-04-18T10:16:16.151Z,1012.72
2016-04-18T10:17:16.123Z,1012.69
2016-04-18T10:18:16.094Z,1012.68
2016-04-18T10:19:16.065Z,1012.72
2016-04-18T10:20:16.052Z,1012.68
2016-04-18T10:21:16.024Z,1012.73
2016-04-18T10:22:16.011Z,1012.68
2016-04-18T10:23:15.982Z,1012.66
2016-04-18T10:24:15.969Z,1012.62
2016-04-18T10:25:15.941Z,1012.67
2016-04-18T10:26:15.912Z,1012.73
2016-04-18T10:27:15.884Z,1012.63
2016-04-18T10:28:15.871Z,1012.66
2016-04-18T10:29:15.843Z,1012.63
2016-04-18T10:30:15.813Z,1012.62
2016-04-18T10:31:15.801Z,1012.64
2016-04-18T10:32:15.772Z,1012.62
2016-04-18T10:33:15.743Z,1012.63
2016-04-18T10:34:15.731Z,1012.61
2016-04-18T10:35:15.702Z,1012.66
2016-04-18T10:36:15.690Z,1012.65
2016-04-18T10:37:15.661Z,1012.67
2016-04-18T10:38:15.632Z,1012.62
2016-04-18T10:39:15.619Z,1012.62
2016-04-18T10:40:15.591Z,1012.59
2016-04-18T10:41:15.561Z,1012.61
2016-04-18T10:42:15.549Z,1012.56
2016-04-18T10:43:15.520Z,1012.59
2016-04-18T10:44:15.492Z,1012.55
2016-04-18T10:45:15.478Z,1012.58
2016-04-18T10:46:15.451Z,1012.57
2016-04-18T10:47:15.438Z,1012.63
2016-04-18T10:48:15.409Z,1012.57
2016-04-18T10:49:15.397Z,1012.59
2016-04-18T10:50:15.368Z,1012.56
2016-04-18T10:51:15.338Z,1012.57
2016-04-18T10:52:15.326Z,1012.55
2016-04-18T10:53:15.297Z,1012.64
2016-04-18T10:54:15.269Z,1012.66
2016-04-18T10:55:15.255Z,1012.56
2016-04-18T10:56:15.227Z,1012.6
2016-04-18T10:57:15.215Z,1012.65
2016-04-18T10:58:15.185Z,1012.68
2016-04-18T10:59:15.174Z,1012.62
2016-04-18T11:00:15.144Z,1012.58
2016-04-18T11:01:15.132Z,1012.63
2016-04-18T11:02:15.103Z,1012.71
2016-04-18T11:03:15.074Z,1012.66
2016-04-18T11:04:15.061Z,1012.65
2016-04-18T11:05:15.032Z,1012.65
2016-04-18T11:06:15.020Z,1012.66
2016-04-18T11:07:14.991Z,1012.71
2016-04-18T11:08:14.978Z,1012.67
2016-04-18T11:09:14.950Z,1012.64
2016-04-18T11:10:14.937Z,1012.67
2016-04-18T11:11:14.908Z,1012.71
2016-04-18T11:12:14.880Z,1012.65
2016-04-18T11:13:14.867Z,1012.67
2016-04-18T11:14:14.853Z,1012.66
2016-04-18T11:15:14.826Z,1012.64
2016-04-18T11:16:14.797Z,1012.64
2016-04-18T11:17:14.784Z,1012.72
2016-04-18T11:18:14.755Z,1012.74
2016-04-18T11:19:14.742Z,1012.77
2016-04-18T11:20:14.714Z,1012.73
2016-04-18T11:21:14.700Z,1012.72
2016-04-18T11:22:14.673Z,1012.69
2016-04-18T11:23:14.644Z,1012.74
2016-04-18T11:24:14.631Z,1012.72
2016-04-18T11:25:14.602Z,1012.74
2016-04-18T11:26:14.589Z,1012.75
2016-04-18T11:27:14.576Z,1012.73
2016-04-18T11:28:14.549Z,1012.72
2016-04-18T11:29:14.535Z,1012.71
2016-04-18T11:30:14.490Z,1012.68
2016-04-18T11:31:14.477Z,1012.74
2016-04-18T11:32:14.465Z,1012.75
2016-04-18T11:33:14.437Z,1012.73
2016-04-18T11:34:14.408Z,1012.8
2016-04-18T11:35:14.395Z,1012.8
2016-04-18T11:36:14.365Z,1012.78
2016-04-18T11:37:14.353Z,1012.76
2016-04-18T11:38:14.325Z,1012.72
2016-04-18T11:39:14.312Z,1012.81
2016-04-18T11:40:14.284Z,1012.77
2016-04-18T11:41:14.270Z,1012.78
2016-04-18T11:42:14.242Z,1012.79
2016-04-18T11:43:14.228Z,1012.73
2016-04-18T11:44:14.200Z,1012.74
2016-04-18T11:45:14.187Z,1012.75
2016-04-18T11:46:14.159Z,1012.78
2016-04-18T11:47:14.145Z,1012.78
2016-04-18T11:48:14.117Z,1012.78
2016-04-18T11:49:14.105Z,1012.73
2016-04-18T11:50:14.091Z,1012.74
2016-04-18T11:51:14.063Z,1012.72
2016-04-18T11:52:14.050Z,1012.73
2016-04-18T11:53:14.022Z,1012.76
2016-04-18T11:54:13.994Z,1012.67
2016-04-18T11:55:13.980Z,1012.72
2016-04-18T11:56:13.952Z,1012.72
2016-04-18T11:57:13.954Z,1012.74
2016-04-18T11:58:13.925Z,1012.72
2016-04-18T11:59:13.896Z,1012.73
2016-04-18T12:00:13.868Z,1012.78
2016-04-18T12:01:13.855Z,1012.77
2016-04-18T12:02:13.843Z,1012.76
2016-04-18T12:03:13.813Z,1012.77
2016-04-18T12:04:13.802Z,1012.77
2016-04-18T12:05:13.787Z,1012.87
2016-04-18T12:06:13.775Z,1012.78
2016-04-18T12:07:13.731Z,1012.8
2016-04-18T12:08:13.718Z,1012.77
2016-04-18T12:09:13.705Z,1012.83
2016-04-18T12:10:13.676Z,1012.74
2016-04-18T12:11:13.664Z,1012.79
2016-04-18T12:12:13.635Z,1012.82
2016-04-18T12:13:13.622Z,1012.83